sensor_id;sensor_type;location;lat;lon;timestamp;P1;durP1;ratioP1;P2;durP2;ratioP2
38717;SDS011;24468;52.128;9.278;2023-05-07T00:02:21;20.73;;;15.00;;
38717;SDS011;24468;52.128;9.278;2023-05-07T00:04:47;18.48;;;14.70;;
38717;SDS011;24468;52.128;9.278;2023-05-07T00:07:13;21.73;;;16.40;;
38717;SDS011;24468;52.128;9.278;2023-05-07T00:09:39;22.33;;;16.80;;
38717;SDS011;24468;52.128;9.278;2023-05-07T00:12:05;19.63;;;15.38;;
38717;SDS011;24468;52.128;9.278;2023-05-07T00:14:31;20.95;;;15.73;;
38717;SDS011;24468;52.128;9.278;2023-05-07T00:16:56;18.25;;;14.95;;
38717;SDS011;24468;52.128;9.278;2023-05-07T00:19:22;18.23;;;15.40;;
38717;SDS011;24468;52.128;9.278;2023-05-07T00:21:47;19.92;;;16.30;;
38717;SDS011;24468;52.128;9.278;2023-05-07T00:24:13;20.27;;;16.05;;
38717;SDS011;24468;52.128;9.278;2023-05-07T00:26:38;18.90;;;15.00;;
38717;SDS011;24468;52.128;9.278;2023-05-07T00:29:04;19.98;;;15.40;;
38717;SDS011;24468;52.128;9.278;2023-05-07T00:31:29;20.65;;;16.77;;
38717;SDS011;24468;52.128;9.278;2023-05-07T00:33:55;19.95;;;15.90;;
38717;SDS011;24468;52.128;9.278;2023-05-07T00:36:20;19.48;;;15.65;;
38717;SDS011;24468;52.128;9.278;2023-05-07T00:38:46;21.38;;;15.63;;
38717;SDS011;24468;52.128;9.278;2023-05-07T00:41:11;21.25;;;16.02;;
38717;SDS011;24468;52.128;9.278;2023-05-07T00:43:37;17.88;;;14.75;;
38717;SDS011;24468;52.128;9.278;2023-05-07T00:46:02;20.40;;;15.25;;
38717;SDS011;24468;52.128;9.278;2023-05-07T00:48:28;18.52;;;16.25;;
38717;SDS011;24468;52.128;9.278;2023-05-07T00:50:55;19.10;;;15.77;;
38717;SDS011;24468;52.128;9.278;2023-05-07T00:53:21;17.88;;;15.00;;
38717;SDS011;24468;52.128;9.278;2023-05-07T00:55:47;20.98;;;16.13;;
38717;SDS011;24468;52.128;9.278;2023-05-07T00:58:13;18.75;;;15.43;;
38717;SDS011;24468;52.128;9.278;2023-05-07T01:00:39;22.55;;;16.90;;
38717;SDS011;24468;52.128;9.278;2023-05-07T01:03:05;19.60;;;15.63;;
38717;SDS011;24468;52.128;9.278;2023-05-07T01:05:31;22.15;;;15.85;;
38717;SDS011;24468;52.128;9.278;2023-05-07T01:07:56;19.77;;;16.58;;
38717;SDS011;24468;52.128;9.278;2023-05-07T01:10:23;17.98;;;15.95;;
38717;SDS011;24468;52.128;9.278;2023-05-07T01:12:49;22.23;;;16.75;;
38717;SDS011;24468;52.128;9.278;2023-05-07T01:15:16;19.98;;;15.38;;
38717;SDS011;24468;52.128;9.278;2023-05-07T01:17:42;18.52;;;15.75;;
38717;SDS011;24468;52.128;9.278;2023-05-07T01:20:08;19.75;;;16.52;;
38717;SDS011;24468;52.128;9.278;2023-05-07T01:22:35;21.48;;;16.90;;
38717;SDS011;24468;52.128;9.278;2023-05-07T01:25:03;23.92;;;16.25;;
38717;SDS011;24468;52.128;9.278;2023-05-07T01:27:30;19.50;;;15.80;;
38717;SDS011;24468;52.128;9.278;2023-05-07T01:29:55;20.17;;;17.50;;
38717;SDS011;24468;52.128;9.278;2023-05-07T01:32:23;21.92;;;16.88;;
38717;SDS011;24468;52.128;9.278;2023-05-07T01:35:12;21.67;;;17.92;;
38717;SDS011;24468;52.128;9.278;2023-05-07T01:37:43;22.45;;;17.77;;
38717;SDS011;24468;52.128;9.278;2023-05-07T01:40:10;25.55;;;18.55;;
38717;SDS011;24468;52.128;9.278;2023-05-07T01:42:36;20.15;;;16.98;;
38717;SDS011;24468;52.128;9.278;2023-05-07T01:45:02;22.30;;;17.10;;
38717;SDS011;24468;52.128;9.278;2023-05-07T01:47:28;23.33;;;18.63;;
38717;SDS011;24468;52.128;9.278;2023-05-07T01:49:55;24.83;;;18.38;;
38717;SDS011;24468;52.128;9.278;2023-05-07T01:52:22;22.13;;;18.58;;
38717;SDS011;24468;52.128;9.278;2023-05-07T01:54:47;27.30;;;18.20;;
38717;SDS011;24468;52.128;9.278;2023-05-07T01:57:13;22.70;;;18.02;;
38717;SDS011;24468;52.128;9.278;2023-05-07T01:59:38;26.58;;;19.25;;
38717;SDS011;24468;52.128;9.278;2023-05-07T02:02:04;22.20;;;17.83;;
38717;SDS011;24468;52.128;9.278;2023-05-07T02:04:29;25.48;;;17.73;;
38717;SDS011;24468;52.128;9.278;2023-05-07T02:06:55;22.65;;;19.13;;
38717;SDS011;24468;52.128;9.278;2023-05-07T02:09:20;24.55;;;19.13;;
38717;SDS011;24468;52.128;9.278;2023-05-07T02:11:47;26.17;;;20.08;;
38717;SDS011;24468;52.128;9.278;2023-05-07T02:14:12;26.38;;;19.90;;
38717;SDS011;24468;52.128;9.278;2023-05-07T02:16:38;28.58;;;20.83;;
38717;SDS011;24468;52.128;9.278;2023-05-07T02:19:03;27.75;;;20.98;;
38717;SDS011;24468;52.128;9.278;2023-05-07T02:21:28;26.98;;;20.02;;
38717;SDS011;24468;52.128;9.278;2023-05-07T02:23:54;27.35;;;19.27;;
38717;SDS011;24468;52.128;9.278;2023-05-07T02:26:20;25.75;;;20.02;;
38717;SDS011;24468;52.128;9.278;2023-05-07T02:28:46;26.08;;;19.73;;
38717;SDS011;24468;52.128;9.278;2023-05-07T02:31:12;28.70;;;20.88;;
38717;SDS011;24468;52.128;9.278;2023-05-07T02:33:37;26.65;;;21.02;;
38717;SDS011;24468;52.128;9.278;2023-05-07T02:36:07;26.60;;;21.00;;
38717;SDS011;24468;52.128;9.278;2023-05-07T02:38:35;30.20;;;21.33;;
38717;SDS011;24468;52.128;9.278;2023-05-07T02:41:01;29.10;;;21.60;;
38717;SDS011;24468;52.128;9.278;2023-05-07T02:43:27;30.88;;;22.25;;
38717;SDS011;24468;52.128;9.278;2023-05-07T02:46:02;27.63;;;21.42;;
38717;SDS011;24468;52.128;9.278;2023-05-07T02:48:33;25.70;;;19.92;;
38717;SDS011;24468;52.128;9.278;2023-05-07T02:50:59;25.00;;;19.85;;
38717;SDS011;24468;52.128;9.278;2023-05-07T02:53:25;30.40;;;21.92;;
38717;SDS011;24468;52.128;9.278;2023-05-07T02:55:58;29.95;;;22.95;;
38717;SDS011;24468;52.128;9.278;2023-05-07T02:58:25;26.85;;;20.42;;
38717;SDS011;24468;52.128;9.278;2023-05-07T03:00:51;28.40;;;20.15;;
38717;SDS011;24468;52.128;9.278;2023-05-07T03:03:17;27.38;;;21.20;;
38717;SDS011;24468;52.128;9.278;2023-05-07T03:05:43;29.55;;;21.10;;
38717;SDS011;24468;52.128;9.278;2023-05-07T03:08:09;28.98;;;21.20;;
38717;SDS011;24468;52.128;9.278;2023-05-07T03:10:35;27.13;;;19.98;;
38717;SDS011;24468;52.128;9.278;2023-05-07T03:13:01;29.40;;;20.50;;
38717;SDS011;24468;52.128;9.278;2023-05-07T03:15:28;29.48;;;23.02;;
38717;SDS011;24468;52.128;9.278;2023-05-07T03:17:53;30.25;;;22.00;;
38717;SDS011;24468;52.128;9.278;2023-05-07T03:20:19;27.83;;;20.85;;
38717;SDS011;24468;52.128;9.278;2023-05-07T03:22:44;27.10;;;19.92;;
38717;SDS011;24468;52.128;9.278;2023-05-07T03:25:10;29.75;;;20.15;;
38717;SDS011;24468;52.128;9.278;2023-05-07T03:27:36;29.05;;;20.88;;
38717;SDS011;24468;52.128;9.278;2023-05-07T03:30:02;28.83;;;20.98;;
38717;SDS011;24468;52.128;9.278;2023-05-07T03:32:29;29.50;;;22.45;;
38717;SDS011;24468;52.128;9.278;2023-05-07T03:34:54;29.85;;;20.45;;
38717;SDS011;24468;52.128;9.278;2023-05-07T03:37:20;33.47;;;20.20;;
38717;SDS011;24468;52.128;9.278;2023-05-07T03:39:46;31.63;;;19.80;;
38717;SDS011;24468;52.128;9.278;2023-05-07T03:42:12;27.85;;;19.48;;
38717;SDS011;24468;52.128;9.278;2023-05-07T03:44:38;27.80;;;20.00;;
38717;SDS011;24468;52.128;9.278;2023-05-07T03:47:04;24.98;;;18.50;;
38717;SDS011;24468;52.128;9.278;2023-05-07T03:49:29;26.42;;;18.75;;
38717;SDS011;24468;52.128;9.278;2023-05-07T03:51:55;27.40;;;19.08;;
38717;SDS011;24468;52.128;9.278;2023-05-07T03:54:21;24.42;;;19.30;;
38717;SDS011;24468;52.128;9.278;2023-05-07T03:56:46;26.15;;;19.17;;
38717;SDS011;24468;52.128;9.278;2023-05-07T03:59:12;25.70;;;17.88;;
38717;SDS011;24468;52.128;9.278;2023-05-07T04:01:38;25.85;;;19.40;;
38717;SDS011;24468;52.128;9.278;2023-05-07T04:04:04;24.55;;;18.67;;
38717;SDS011;24468;52.128;9.278;2023-05-07T04:06:30;25.73;;;18.17;;
38717;SDS011;24468;52.128;9.278;2023-05-07T04:08:56;26.42;;;18.42;;
38717;SDS011;24468;52.128;9.278;2023-05-07T04:11:22;22.58;;;17.13;;
38717;SDS011;24468;52.128;9.278;2023-05-07T04:13:48;24.45;;;17.50;;
38717;SDS011;24468;52.128;9.278;2023-05-07T04:16:13;22.40;;;17.33;;
38717;SDS011;24468;52.128;9.278;2023-05-07T04:18:39;22.58;;;16.45;;
38717;SDS011;24468;52.128;9.278;2023-05-07T04:21:05;22.17;;;17.33;;
38717;SDS011;24468;52.128;9.278;2023-05-07T04:23:31;21.88;;;16.90;;
38717;SDS011;24468;52.128;9.278;2023-05-07T04:25:56;21.52;;;16.13;;
38717;SDS011;24468;52.128;9.278;2023-05-07T04:28:22;22.05;;;16.60;;
38717;SDS011;24468;52.128;9.278;2023-05-07T04:30:48;19.88;;;15.60;;
38717;SDS011;24468;52.128;9.278;2023-05-07T04:33:14;20.92;;;15.93;;
38717;SDS011;24468;52.128;9.278;2023-05-07T04:35:41;19.88;;;14.40;;
38717;SDS011;24468;52.128;9.278;2023-05-07T04:38:07;21.48;;;15.45;;
38717;SDS011;24468;52.128;9.278;2023-05-07T04:40:33;21.55;;;15.23;;
38717;SDS011;24468;52.128;9.278;2023-05-07T04:43:00;19.25;;;15.02;;
38717;SDS011;24468;52.128;9.278;2023-05-07T04:45:26;16.77;;;13.70;;
38717;SDS011;24468;52.128;9.278;2023-05-07T04:47:52;16.02;;;13.55;;
38717;SDS011;24468;52.128;9.278;2023-05-07T04:50:17;19.27;;;15.48;;
38717;SDS011;24468;52.128;9.278;2023-05-07T04:52:44;20.05;;;13.68;;
38717;SDS011;24468;52.128;9.278;2023-05-07T04:55:10;21.30;;;14.40;;
38717;SDS011;24468;52.128;9.278;2023-05-07T04:57:36;17.92;;;13.30;;
38717;SDS011;24468;52.128;9.278;2023-05-07T05:00:02;19.15;;;13.35;;
38717;SDS011;24468;52.128;9.278;2023-05-07T05:02:29;18.15;;;13.65;;
38717;SDS011;24468;52.128;9.278;2023-05-07T05:04:54;17.27;;;13.80;;
38717;SDS011;24468;52.128;9.278;2023-05-07T05:07:20;17.60;;;12.80;;
38717;SDS011;24468;52.128;9.278;2023-05-07T05:09:45;17.33;;;12.82;;
38717;SDS011;24468;52.128;9.278;2023-05-07T05:12:11;15.35;;;12.40;;
38717;SDS011;24468;52.128;9.278;2023-05-07T05:14:36;14.82;;;12.05;;
38717;SDS011;24468;52.128;9.278;2023-05-07T05:17:02;15.48;;;11.85;;
38717;SDS011;24468;52.128;9.278;2023-05-07T05:19:27;15.52;;;12.32;;
38717;SDS011;24468;52.128;9.278;2023-05-07T05:21:53;17.70;;;12.82;;
38717;SDS011;24468;52.128;9.278;2023-05-07T05:24:19;14.95;;;11.95;;
38717;SDS011;24468;52.128;9.278;2023-05-07T05:26:44;17.73;;;13.13;;
38717;SDS011;24468;52.128;9.278;2023-05-07T05:29:10;16.63;;;12.45;;
38717;SDS011;24468;52.128;9.278;2023-05-07T05:31:36;16.48;;;12.73;;
38717;SDS011;24468;52.128;9.278;2023-05-07T05:34:02;15.35;;;12.27;;
38717;SDS011;24468;52.128;9.278;2023-05-07T05:36:27;14.63;;;12.55;;
38717;SDS011;24468;52.128;9.278;2023-05-07T05:38:53;16.90;;;13.07;;
38717;SDS011;24468;52.128;9.278;2023-05-07T05:41:18;17.55;;;13.18;;
38717;SDS011;24468;52.128;9.278;2023-05-07T05:43:44;16.15;;;11.88;;
38717;SDS011;24468;52.128;9.278;2023-05-07T05:46:09;16.50;;;13.05;;
38717;SDS011;24468;52.128;9.278;2023-05-07T05:48:36;15.45;;;13.38;;
38717;SDS011;24468;52.128;9.278;2023-05-07T05:51:02;14.43;;;11.45;;
38717;SDS011;24468;52.128;9.278;2023-05-07T05:53:27;15.43;;;12.75;;
38717;SDS011;24468;52.128;9.278;2023-05-07T05:55:53;16.52;;;12.30;;
38717;SDS011;24468;52.128;9.278;2023-05-07T05:58:18;16.95;;;13.50;;
38717;SDS011;24468;52.128;9.278;2023-05-07T06:00:45;15.90;;;12.85;;
38717;SDS011;24468;52.128;9.278;2023-05-07T06:03:13;17.92;;;12.90;;
38717;SDS011;24468;52.128;9.278;2023-05-07T06:05:38;15.63;;;11.93;;
38717;SDS011;24468;52.128;9.278;2023-05-07T06:08:04;15.57;;;11.93;;
38717;SDS011;24468;52.128;9.278;2023-05-07T06:10:29;17.58;;;11.88;;
38717;SDS011;24468;52.128;9.278;2023-05-07T06:12:55;14.05;;;11.40;;
38717;SDS011;24468;52.128;9.278;2023-05-07T06:15:21;15.02;;;12.38;;
38717;SDS011;24468;52.128;9.278;2023-05-07T06:17:46;16.25;;;13.25;;
38717;SDS011;24468;52.128;9.278;2023-05-07T06:20:12;15.32;;;11.95;;
38717;SDS011;24468;52.128;9.278;2023-05-07T06:22:37;14.63;;;12.05;;
38717;SDS011;24468;52.128;9.278;2023-05-07T06:25:03;12.85;;;11.45;;
38717;SDS011;24468;52.128;9.278;2023-05-07T06:27:28;16.77;;;12.30;;
38717;SDS011;24468;52.128;9.278;2023-05-07T06:29:54;15.40;;;12.02;;
38717;SDS011;24468;52.128;9.278;2023-05-07T06:32:20;16.63;;;12.63;;
38717;SDS011;24468;52.128;9.278;2023-05-07T06:34:45;15.80;;;12.15;;
38717;SDS011;24468;52.128;9.278;2023-05-07T06:37:11;14.25;;;11.13;;
38717;SDS011;24468;52.128;9.278;2023-05-07T06:39:36;15.00;;;11.55;;
38717;SDS011;24468;52.128;9.278;2023-05-07T06:42:02;15.52;;;11.90;;
38717;SDS011;24468;52.128;9.278;2023-05-07T06:44:29;14.75;;;11.65;;
38717;SDS011;24468;52.128;9.278;2023-05-07T06:46:55;17.85;;;12.18;;
38717;SDS011;24468;52.128;9.278;2023-05-07T06:49:20;14.38;;;12.38;;
38717;SDS011;24468;52.128;9.278;2023-05-07T06:51:46;16.77;;;12.63;;
38717;SDS011;24468;52.128;9.278;2023-05-07T06:54:12;14.40;;;12.10;;
38717;SDS011;24468;52.128;9.278;2023-05-07T06:56:37;15.98;;;12.27;;
38717;SDS011;24468;52.128;9.278;2023-05-07T06:59:03;14.65;;;11.95;;
38717;SDS011;24468;52.128;9.278;2023-05-07T07:01:28;15.35;;;12.90;;
38717;SDS011;24468;52.128;9.278;2023-05-07T07:03:54;17.40;;;11.65;;
38717;SDS011;24468;52.128;9.278;2023-05-07T07:06:20;16.77;;;13.25;;
38717;SDS011;24468;52.128;9.278;2023-05-07T07:08:45;16.20;;;12.85;;
38717;SDS011;24468;52.128;9.278;2023-05-07T07:11:11;14.15;;;11.43;;
38717;SDS011;24468;52.128;9.278;2023-05-07T07:13:36;14.98;;;11.50;;
38717;SDS011;24468;52.128;9.278;2023-05-07T07:16:02;16.23;;;11.77;;
38717;SDS011;24468;52.128;9.278;2023-05-07T07:18:28;14.40;;;11.70;;
38717;SDS011;24468;52.128;9.278;2023-05-07T07:20:53;15.70;;;12.00;;
38717;SDS011;24468;52.128;9.278;2023-05-07T07:23:19;18.20;;;12.57;;
38717;SDS011;24468;52.128;9.278;2023-05-07T07:25:45;16.75;;;12.90;;
38717;SDS011;24468;52.128;9.278;2023-05-07T07:28:11;14.50;;;12.18;;
38717;SDS011;24468;52.128;9.278;2023-05-07T07:30:37;14.80;;;12.70;;
38717;SDS011;24468;52.128;9.278;2023-05-07T07:33:03;19.52;;;12.98;;
38717;SDS011;24468;52.128;9.278;2023-05-07T07:35:29;15.63;;;12.38;;
38717;SDS011;24468;52.128;9.278;2023-05-07T07:37:55;15.68;;;11.38;;
38717;SDS011;24468;52.128;9.278;2023-05-07T07:40:20;16.60;;;11.80;;
38717;SDS011;24468;52.128;9.278;2023-05-07T07:42:46;15.88;;;13.05;;
38717;SDS011;24468;52.128;9.278;2023-05-07T07:45:12;15.63;;;12.15;;
38717;SDS011;24468;52.128;9.278;2023-05-07T07:47:38;15.02;;;11.75;;
38717;SDS011;24468;52.128;9.278;2023-05-07T07:50:05;16.20;;;11.27;;
38717;SDS011;24468;52.128;9.278;2023-05-07T07:52:31;12.90;;;10.57;;
38717;SDS011;24468;52.128;9.278;2023-05-07T07:54:57;14.15;;;11.02;;
38717;SDS011;24468;52.128;9.278;2023-05-07T07:57:23;15.30;;;11.18;;
38717;SDS011;24468;52.128;9.278;2023-05-07T07:59:49;15.02;;;10.93;;
38717;SDS011;24468;52.128;9.278;2023-05-07T08:02:15;14.30;;;11.10;;
38717;SDS011;24468;52.128;9.278;2023-05-07T08:04:41;15.70;;;10.85;;
38717;SDS011;24468;52.128;9.278;2023-05-07T08:07:08;18.35;;;12.35;;
38717;SDS011;24468;52.128;9.278;2023-05-07T08:09:35;14.65;;;11.90;;
38717;SDS011;24468;52.128;9.278;2023-05-07T08:12:01;13.93;;;11.60;;
38717;SDS011;24468;52.128;9.278;2023-05-07T08:14:27;15.00;;;12.18;;
38717;SDS011;24468;52.128;9.278;2023-05-07T08:16:53;14.70;;;11.45;;
38717;SDS011;24468;52.128;9.278;2023-05-07T08:19:19;15.27;;;11.15;;
38717;SDS011;24468;52.128;9.278;2023-05-07T08:21:45;18.95;;;12.00;;
38717;SDS011;24468;52.128;9.278;2023-05-07T08:24:13;18.25;;;12.27;;
38717;SDS011;24468;52.128;9.278;2023-05-07T08:26:39;15.77;;;12.30;;
38717;SDS011;24468;52.128;9.278;2023-05-07T08:29:05;15.18;;;11.48;;
38717;SDS011;24468;52.128;9.278;2023-05-07T08:31:30;17.48;;;11.85;;
38717;SDS011;24468;52.128;9.278;2023-05-07T08:33:57;14.27;;;11.10;;
38717;SDS011;24468;52.128;9.278;2023-05-07T08:36:22;16.42;;;11.70;;
38717;SDS011;24468;52.128;9.278;2023-05-07T08:38:48;16.52;;;12.82;;
38717;SDS011;24468;52.128;9.278;2023-05-07T08:41:14;14.07;;;11.80;;
38717;SDS011;24468;52.128;9.278;2023-05-07T08:43:41;12.10;;;10.10;;
38717;SDS011;24468;52.128;9.278;2023-05-07T08:46:10;15.68;;;11.95;;
38717;SDS011;24468;52.128;9.278;2023-05-07T08:48:36;14.30;;;10.32;;
38717;SDS011;24468;52.128;9.278;2023-05-07T08:51:02;15.63;;;10.98;;
38717;SDS011;24468;52.128;9.278;2023-05-07T08:53:28;15.68;;;10.30;;
38717;SDS011;24468;52.128;9.278;2023-05-07T08:55:53;11.93;;;10.05;;
38717;SDS011;24468;52.128;9.278;2023-05-07T08:58:20;13.15;;;9.20;;
38717;SDS011;24468;52.128;9.278;2023-05-07T09:00:46;15.10;;;10.65;;
38717;SDS011;24468;52.128;9.278;2023-05-07T09:03:12;15.10;;;11.27;;
38717;SDS011;24468;52.128;9.278;2023-05-07T09:05:38;14.20;;;11.13;;
38717;SDS011;24468;52.128;9.278;2023-05-07T09:08:05;13.30;;;10.35;;
38717;SDS011;24468;52.128;9.278;2023-05-07T09:10:32;13.55;;;10.57;;
38717;SDS011;24468;52.128;9.278;2023-05-07T09:12:59;12.02;;;9.50;;
38717;SDS011;24468;52.128;9.278;2023-05-07T09:15:25;12.48;;;9.65;;
38717;SDS011;24468;52.128;9.278;2023-05-07T09:17:53;12.30;;;9.30;;
38717;SDS011;24468;52.128;9.278;2023-05-07T09:20:18;12.57;;;9.27;;
38717;SDS011;24468;52.128;9.278;2023-05-07T09:22:44;14.27;;;10.25;;
38717;SDS011;24468;52.128;9.278;2023-05-07T09:25:10;12.27;;;9.88;;
38717;SDS011;24468;52.128;9.278;2023-05-07T09:27:35;12.20;;;10.27;;
38717;SDS011;24468;52.128;9.278;2023-05-07T09:30:05;10.43;;;9.32;;
38717;SDS011;24468;52.128;9.278;2023-05-07T09:32:34;11.95;;;10.15;;
38717;SDS011;24468;52.128;9.278;2023-05-07T09:35:02;11.55;;;9.30;;
38717;SDS011;24468;52.128;9.278;2023-05-07T09:37:30;12.05;;;10.07;;
38717;SDS011;24468;52.128;9.278;2023-05-07T09:39:56;13.32;;;10.23;;
38717;SDS011;24468;52.128;9.278;2023-05-07T09:42:25;13.10;;;9.30;;
38717;SDS011;24468;52.128;9.278;2023-05-07T09:44:51;12.20;;;9.63;;
38717;SDS011;24468;52.128;9.278;2023-05-07T09:47:20;12.30;;;9.68;;
38717;SDS011;24468;52.128;9.278;2023-05-07T09:49:49;12.48;;;9.65;;
38717;SDS011;24468;52.128;9.278;2023-05-07T09:52:18;12.60;;;10.27;;
38717;SDS011;24468;52.128;9.278;2023-05-07T09:54:45;10.75;;;9.23;;
38717;SDS011;24468;52.128;9.278;2023-05-07T09:57:12;17.20;;;15.18;;
38717;SDS011;24468;52.128;9.278;2023-05-07T09:59:39;20.48;;;16.95;;
38717;SDS011;24468;52.128;9.278;2023-05-07T10:02:08;12.32;;;11.05;;
38717;SDS011;24468;52.128;9.278;2023-05-07T10:04:35;10.30;;;9.00;;
38717;SDS011;24468;52.128;9.278;2023-05-07T10:07:01;10.88;;;9.52;;
38717;SDS011;24468;52.128;9.278;2023-05-07T10:09:29;11.10;;;9.10;;
38717;SDS011;24468;52.128;9.278;2023-05-07T10:11:55;10.02;;;8.98;;
38717;SDS011;24468;52.128;9.278;2023-05-07T10:14:22;10.05;;;8.38;;
38717;SDS011;24468;52.128;9.278;2023-05-07T10:16:48;9.25;;;8.35;;
38717;SDS011;24468;52.128;9.278;2023-05-07T10:19:14;11.15;;;9.57;;
38717;SDS011;24468;52.128;9.278;2023-05-07T10:21:41;9.80;;;8.90;;
38717;SDS011;24468;52.128;9.278;2023-05-07T10:24:19;8.77;;;7.47;;
38717;SDS011;24468;52.128;9.278;2023-05-07T10:26:51;10.23;;;8.57;;
38717;SDS011;24468;52.128;9.278;2023-05-07T10:35:23;10.50;;;9.13;;
38717;SDS011;24468;52.128;9.278;2023-05-07T10:37:56;9.95;;;8.65;;
38717;SDS011;24468;52.128;9.278;2023-05-07T10:40:22;9.68;;;8.00;;
38717;SDS011;24468;52.128;9.278;2023-05-07T10:42:55;9.85;;;8.82;;
38717;SDS011;24468;52.128;9.278;2023-05-07T10:45:26;8.75;;;7.85;;
38717;SDS011;24468;52.128;9.278;2023-05-07T10:50:38;10.02;;;8.43;;
38717;SDS011;24468;52.128;9.278;2023-05-07T10:55:48;9.90;;;8.98;;
38717;SDS011;24468;52.128;9.278;2023-05-07T11:00:59;9.00;;;8.20;;
38717;SDS011;24468;52.128;9.278;2023-05-07T11:03:26;10.57;;;9.52;;
38717;SDS011;24468;52.128;9.278;2023-05-07T11:06:08;9.80;;;8.80;;
38717;SDS011;24468;52.128;9.278;2023-05-07T11:11:19;8.70;;;7.80;;
38717;SDS011;24468;52.128;9.278;2023-05-07T11:14:06;9.25;;;8.35;;
38717;SDS011;24468;52.128;9.278;2023-05-07T11:16:32;8.52;;;7.63;;
38717;SDS011;24468;52.128;9.278;2023-05-07T11:19:00;8.25;;;7.45;;
38717;SDS011;24468;52.128;9.278;2023-05-07T11:21:47;8.55;;;7.38;;
38717;SDS011;24468;52.128;9.278;2023-05-07T11:24:13;8.80;;;7.22;;
38717;SDS011;24468;52.128;9.278;2023-05-07T11:26:41;8.55;;;7.60;;
38717;SDS011;24468;52.128;9.278;2023-05-07T11:31:51;8.93;;;7.50;;
38717;SDS011;24468;52.128;9.278;2023-05-07T11:34:24;8.20;;;7.28;;
38717;SDS011;24468;52.128;9.278;2023-05-07T11:36:51;8.30;;;6.95;;
38717;SDS011;24468;52.128;9.278;2023-05-07T11:39:28;8.10;;;7.40;;
38717;SDS011;24468;52.128;9.278;2023-05-07T11:42:01;8.13;;;7.40;;
38717;SDS011;24468;52.128;9.278;2023-05-07T11:44:45;8.73;;;7.90;;
38717;SDS011;24468;52.128;9.278;2023-05-07T11:47:19;8.50;;;7.60;;
38717;SDS011;24468;52.128;9.278;2023-05-07T11:49:46;8.88;;;8.05;;
38717;SDS011;24468;52.128;9.278;2023-05-07T11:52:17;8.88;;;8.07;;
38717;SDS011;24468;52.128;9.278;2023-05-07T11:54:50;8.50;;;7.65;;
38717;SDS011;24468;52.128;9.278;2023-05-07T11:57:20;9.40;;;8.50;;
38717;SDS011;24468;52.128;9.278;2023-05-07T11:59:46;8.05;;;7.20;;
38717;SDS011;24468;52.128;9.278;2023-05-07T12:02:16;9.18;;;8.27;;
38717;SDS011;24468;52.128;9.278;2023-05-07T12:04:42;8.35;;;7.63;;
38717;SDS011;24468;52.128;9.278;2023-05-07T12:07:12;9.98;;;8.27;;
38717;SDS011;24468;52.128;9.278;2023-05-07T12:09:39;8.93;;;8.02;;
38717;SDS011;24468;52.128;9.278;2023-05-07T12:12:05;8.88;;;7.90;;
38717;SDS011;24468;52.128;9.278;2023-05-07T12:14:31;8.15;;;7.35;;
38717;SDS011;24468;52.128;9.278;2023-05-07T12:16:57;8.27;;;7.50;;
38717;SDS011;24468;52.128;9.278;2023-05-07T12:19:27;8.82;;;7.88;;
38717;SDS011;24468;52.128;9.278;2023-05-07T12:21:57;8.55;;;7.55;;
38717;SDS011;24468;52.128;9.278;2023-05-07T12:24:22;8.68;;;7.05;;
38717;SDS011;24468;52.128;9.278;2023-05-07T12:26:48;8.98;;;8.20;;
38717;SDS011;24468;52.128;9.278;2023-05-07T12:29:14;8.75;;;7.55;;
38717;SDS011;24468;52.128;9.278;2023-05-07T12:31:40;9.77;;;8.55;;
38717;SDS011;24468;52.128;9.278;2023-05-07T12:34:06;8.73;;;7.72;;
38717;SDS011;24468;52.128;9.278;2023-05-07T12:36:39;8.48;;;7.72;;
38717;SDS011;24468;52.128;9.278;2023-05-07T12:39:06;9.25;;;7.80;;
38717;SDS011;24468;52.128;9.278;2023-05-07T12:41:36;9.07;;;8.25;;
38717;SDS011;24468;52.128;9.278;2023-05-07T12:44:24;8.25;;;7.50;;
38717;SDS011;24468;52.128;9.278;2023-05-07T12:46:58;9.23;;;8.32;;
38717;SDS011;24468;52.128;9.278;2023-05-07T12:49:26;9.32;;;8.45;;
38717;SDS011;24468;52.128;9.278;2023-05-07T12:51:52;8.90;;;8.10;;
38717;SDS011;24468;52.128;9.278;2023-05-07T12:54:28;10.15;;;9.13;;
38717;SDS011;24468;52.128;9.278;2023-05-07T12:57:04;8.98;;;8.18;;
38717;SDS011;24468;52.128;9.278;2023-05-07T13:01:57;9.38;;;8.48;;
38717;SDS011;24468;52.128;9.278;2023-05-07T13:04:24;10.63;;;7.50;;
38717;SDS011;24468;52.128;9.278;2023-05-07T13:06:50;9.45;;;8.50;;
38717;SDS011;24468;52.128;9.278;2023-05-07T13:09:16;8.57;;;7.78;;
38717;SDS011;24468;52.128;9.278;2023-05-07T13:11:41;11.23;;;8.63;;
38717;SDS011;24468;52.128;9.278;2023-05-07T13:14:07;9.90;;;8.15;;
38717;SDS011;24468;52.128;9.278;2023-05-07T13:16:33;9.23;;;8.32;;
38717;SDS011;24468;52.128;9.278;2023-05-07T13:18:58;9.85;;;7.85;;
38717;SDS011;24468;52.128;9.278;2023-05-07T13:21:24;9.10;;;8.27;;
38717;SDS011;24468;52.128;9.278;2023-05-07T13:23:49;9.25;;;8.35;;
38717;SDS011;24468;52.128;9.278;2023-05-07T13:26:15;9.15;;;8.30;;
38717;SDS011;24468;52.128;9.278;2023-05-07T13:28:40;8.88;;;7.97;;
38717;SDS011;24468;52.128;9.278;2023-05-07T13:31:06;8.32;;;7.65;;
38717;SDS011;24468;52.128;9.278;2023-05-07T13:33:32;8.00;;;7.30;;
38717;SDS011;24468;52.128;9.278;2023-05-07T13:35:57;8.77;;;7.97;;
38717;SDS011;24468;52.128;9.278;2023-05-07T13:38:25;8.90;;;8.07;;
38717;SDS011;24468;52.128;9.278;2023-05-07T13:40:51;8.23;;;7.43;;
38717;SDS011;24468;52.128;9.278;2023-05-07T13:43:16;8.32;;;7.07;;
38717;SDS011;24468;52.128;9.278;2023-05-07T13:45:43;8.35;;;7.55;;
38717;SDS011;24468;52.128;9.278;2023-05-07T13:48:09;8.93;;;8.00;;
38717;SDS011;24468;52.128;9.278;2023-05-07T13:50:34;8.43;;;7.72;;
38717;SDS011;24468;52.128;9.278;2023-05-07T13:53:00;7.88;;;7.18;;
38717;SDS011;24468;52.128;9.278;2023-05-07T13:55:28;7.93;;;7.22;;
38717;SDS011;24468;52.128;9.278;2023-05-07T13:57:58;7.93;;;7.20;;
38717;SDS011;24468;52.128;9.278;2023-05-07T14:00:26;7.90;;;7.15;;
38717;SDS011;24468;52.128;9.278;2023-05-07T14:02:53;7.10;;;6.40;;
38717;SDS011;24468;52.128;9.278;2023-05-07T14:05:20;8.68;;;7.88;;
38717;SDS011;24468;52.128;9.278;2023-05-07T14:07:48;7.50;;;6.80;;
38717;SDS011;24468;52.128;9.278;2023-05-07T14:10:16;7.93;;;7.22;;
38717;SDS011;24468;52.128;9.278;2023-05-07T14:12:43;7.75;;;7.15;;
38717;SDS011;24468;52.128;9.278;2023-05-07T14:15:10;7.00;;;6.40;;
38717;SDS011;24468;52.128;9.278;2023-05-07T14:17:36;7.45;;;6.65;;
38717;SDS011;24468;52.128;9.278;2023-05-07T14:20:02;7.60;;;6.90;;
38717;SDS011;24468;52.128;9.278;2023-05-07T14:22:28;7.43;;;6.10;;
38717;SDS011;24468;52.128;9.278;2023-05-07T14:24:54;7.93;;;6.85;;
38717;SDS011;24468;52.128;9.278;2023-05-07T14:27:19;7.43;;;6.80;;
38717;SDS011;24468;52.128;9.278;2023-05-07T14:29:45;7.50;;;6.80;;
38717;SDS011;24468;52.128;9.278;2023-05-07T14:32:15;7.53;;;6.85;;
38717;SDS011;24468;52.128;9.278;2023-05-07T14:34:44;6.85;;;6.20;;
38717;SDS011;24468;52.128;9.278;2023-05-07T14:37:10;7.28;;;6.50;;
38717;SDS011;24468;52.128;9.278;2023-05-07T14:39:37;6.55;;;5.95;;
38717;SDS011;24468;52.128;9.278;2023-05-07T14:42:02;9.00;;;5.75;;
38717;SDS011;24468;52.128;9.278;2023-05-07T14:44:28;7.80;;;6.28;;
38717;SDS011;24468;52.128;9.278;2023-05-07T14:46:53;7.47;;;6.57;;
38717;SDS011;24468;52.128;9.278;2023-05-07T14:49:20;7.05;;;6.45;;